Terminal Aerodrome Forecast
Issued by NWS Charleston, WV

Current Version | Previous Version | Graphics & Text | Print | Product List | Glossary On
Versions: 1 2 3 4 5 6 7 8 9 10 11 12 13 14 15 16 17 18 19 20 21 22 23
000
FTUS41 KRLX 182152 AAA
TAFHTS
TAF AMD
KHTS 182152Z 1822/1918 28008KT P6SM SKC
     FM190100 26003KT P6SM SKC
     FM190600 00000KT 4SM BR FEW001
     FM190800 00000KT 1/2SM FG BKN001
     FM191200 00000KT 1 1/2SM BR FEW250
     FM191300 VRB03KT P6SM FEW150=

USA.gov is the U.S. government's official web portal to all federal, state and local government web resources and services.